Time;durP1;ratioP1;P1;durP2;ratioP2;P2;SDS_P1;SDS_P2;PMS_P1;PMS_P2;Temp;Humidity;BMP_temperature;BMP_pressure;BME280_temperature;BME280_humidity;BME280_pressure;Samples;Min_cycle;Max_cycle;Signal;HPM_P1;HPM_P2
2022/12/01 00:00:09;;;;;;;18.10;10.23;;;5.60;99.90;;;;;;5035875;28;20553;-81
2022/12/01 00:02:34;;;;;;;19.07;9.87;;;5.50;99.90;;;;;;5035389;28;20198;-82
2022/12/01 00:05:01;;;;;;;18.90;9.93;;;5.50;99.90;;;;;;5036968;28;20260;-81
2022/12/01 00:07:26;;;;;;;20.70;10.27;;;5.50;99.90;;;;;;5037247;28;20646;-81
2022/12/01 00:12:42;;;;;;;20.10;10.23;;;5.60;99.90;;;;;;5036739;28;20837;-81
2022/12/01 00:15:09;;;;;;;19.13;10.57;;;5.60;99.90;;;;;;5037464;28;20257;-81
2022/12/01 00:17:34;;;;;;;18.83;10.77;;;5.60;99.90;;;;;;5035695;28;20197;-81
2022/12/01 00:20:00;;;;;;;19.60;11.10;;;5.50;99.90;;;;;;5036393;28;20544;-81
2022/12/01 00:22:26;;;;;;;17.57;10.53;;;5.50;99.90;;;;;;5035253;28;20185;-81
2022/12/01 00:24:51;;;;;;;19.33;11.17;;;5.50;99.90;;;;;;5034305;28;20212;-81
2022/12/01 00:27:17;;;;;;;20.97;11.27;;;5.60;99.90;;;;;;5035304;28;20526;-81
2022/12/01 00:29:44;;;;;;;21.30;11.40;;;5.60;99.90;;;;;;5036980;28;20235;-81
2022/12/01 00:32:09;;;;;;;18.97;10.70;;;5.60;99.90;;;;;;5035484;28;20250;-81
2022/12/01 00:34:36;;;;;;;19.77;11.57;;;5.60;99.90;;;;;;5034817;28;20173;-81
2022/12/01 00:37:02;;;;;;;21.20;11.07;;;5.60;99.90;;;;;;5034574;28;20703;-82
2022/12/01 00:39:28;;;;;;;19.00;10.63;;;5.60;99.90;;;;;;5035168;28;20166;-80
2022/12/01 00:41:53;;;;;;;20.80;11.73;;;5.60;99.90;;;;;;5036257;28;20265;-81
2022/12/01 00:44:19;;;;;;;19.83;10.67;;;5.60;99.90;;;;;;5096874;22;20702;-81
2022/12/01 00:46:44;;;;;;;19.13;11.53;;;5.60;99.90;;;;;;5036896;28;20229;-80
2022/12/01 00:49:14;;;;;;;20.20;11.10;;;5.60;99.90;;;;;;5037190;28;20175;-81
2022/12/01 00:51:40;;;;;;;17.10;10.53;;;5.60;99.90;;;;;;5036548;28;20707;-80
2022/12/01 00:54:05;;;;;;;20.03;10.83;;;5.50;99.90;;;;;;5036762;28;20234;-81
2022/12/01 00:56:31;;;;;;;21.33;11.13;;;5.60;99.90;;;;;;5036639;28;20562;-81
2022/12/01 00:58:57;;;;;;;20.47;11.50;;;5.60;99.90;;;;;;5036814;28;20181;-82
2022/12/01 01:01:22;;;;;;;20.63;11.50;;;5.60;99.90;;;;;;5048452;28;20581;-81
2022/12/01 01:03:48;;;;;;;20.53;11.53;;;5.50;99.90;;;;;;5053446;28;20197;-81
2022/12/01 01:06:14;;;;;;;18.37;10.67;;;5.50;99.90;;;;;;5070540;28;20226;-81
2022/12/01 01:08:40;;;;;;;20.57;11.83;;;5.50;99.90;;;;;;5062427;28;20185;-82
2022/12/01 01:11:06;;;;;;;19.47;11.63;;;5.40;99.90;;;;;;5036157;28;20226;-82
2022/12/01 01:13:32;;;;;;;21.90;11.43;;;5.50;99.90;;;;;;5036032;28;20191;-81
2022/12/01 01:16:04;;;;;;;23.50;12.10;;;5.40;99.90;;;;;;5054007;28;20739;-81
2022/12/01 01:18:31;;;;;;;23.33;12.43;;;5.30;99.90;;;;;;5054375;28;20175;-82
2022/12/01 01:21:02;;;;;;;21.80;11.53;;;5.20;99.90;;;;;;5036408;28;20675;-81
2022/12/01 01:23:28;;;;;;;23.57;12.93;;;5.30;99.90;;;;;;5061948;28;20199;-80
2022/12/01 01:26:00;;;;;;;22.37;11.97;;;5.20;99.90;;;;;;5036040;28;20180;-82
2022/12/01 01:28:26;;;;;;;20.83;11.47;;;5.20;99.90;;;;;;5035943;28;20229;-81
2022/12/01 01:30:51;;;;;;;20.00;11.23;;;5.10;99.90;;;;;;5036155;28;20653;-81
2022/12/01 01:33:17;;;;;;;21.27;11.97;;;5.10;99.90;;;;;;5035641;28;20206;-81
2022/12/01 01:35:43;;;;;;;21.47;11.13;;;5.00;99.90;;;;;;5035357;28;20247;-83
2022/12/01 01:38:08;;;;;;;20.90;11.33;;;5.00;99.90;;;;;;5053978;28;20171;-80
2022/12/01 01:40:40;;;;;;;21.27;11.50;;;5.00;99.90;;;;;;5054090;28;20526;-81
2022/12/01 01:43:16;;;;;;;19.10;11.20;;;5.00;99.90;;;;;;5036015;28;20238;-80
2022/12/01 01:45:42;;;;;;;19.13;10.90;;;5.10;99.90;;;;;;5035781;28;20184;-80
2022/12/01 01:48:10;;;;;;;17.60;10.00;;;5.10;99.90;;;;;;5053582;28;20198;-81
2022/12/01 01:50:36;;;;;;;20.80;12.20;;;5.10;99.90;;;;;;5035655;28;20177;-81
2022/12/01 01:53:07;;;;;;;18.87;10.93;;;5.00;99.90;;;;;;5053843;28;20203;-81
2022/12/01 01:55:34;;;;;;;20.57;11.80;;;5.00;99.90;;;;;;5043687;28;20211;-81
2022/12/01 01:58:03;;;;;;;18.37;10.67;;;4.90;99.90;;;;;;5053963;28;20246;-81
2022/12/01 02:00:28;;;;;;;20.40;11.67;;;4.90;99.90;;;;;;5049489;28;20239;-81
2022/12/01 02:02:56;;;;;;;21.53;11.40;;;4.90;99.90;;;;;;5046872;28;20742;-80
2022/12/01 02:05:33;;;;;;;18.30;10.37;;;5.00;99.90;;;;;;5052291;28;20258;-80
2022/12/01 02:08:00;;;;;;;17.80;10.50;;;5.00;99.90;;;;;;5043551;28;20179;-81
2022/12/01 02:10:45;;;;;;;17.30;10.43;;;4.90;99.90;;;;;;5073451;28;20212;-81
2022/12/01 02:13:33;;;;;;;21.00;11.00;;;4.90;99.90;;;;;;5055310;28;20199;-81
2022/12/01 02:16:11;;;;;;;20.07;10.60;;;4.90;99.90;;;;;;5055660;28;20207;-80
2022/12/01 02:18:42;;;;;;;19.20;10.77;;;4.90;99.90;;;;;;5073515;28;20175;-81
2022/12/01 02:21:25;;;;;;;19.53;11.17;;;4.80;99.90;;;;;;5055443;28;20173;-81
2022/12/01 02:24:04;;;;;;;17.47;10.63;;;4.90;99.90;;;;;;5055008;28;20696;-80
2022/12/01 02:26:52;;;;;;;18.27;10.67;;;4.90;99.90;;;;;;5054971;28;20176;-80
2022/12/01 02:29:47;;;;;;;20.30;10.57;;;4.90;99.90;;;;;;5055229;28;20177;-81
2022/12/01 02:32:22;;;;;;;18.80;10.00;;;4.90;99.90;;;;;;5072766;28;20281;-79
2022/12/01 02:35:18;;;;;;;17.93;10.53;;;4.80;99.90;;;;;;5059302;28;20209;-81
2022/12/01 02:38:05;;;;;;;19.20;10.83;;;4.80;99.90;;;;;;5038801;28;20531;-81
2022/12/01 02:40:38;;;;;;;19.53;11.03;;;4.80;99.90;;;;;;5053219;28;20193;-82
2022/12/01 02:43:09;;;;;;;17.47;10.17;;;4.80;99.90;;;;;;5052834;28;20237;-80
2022/12/01 02:45:55;;;;;;;19.70;10.30;;;4.70;99.90;;;;;;5053148;28;20174;-81
2022/12/01 02:48:31;;;;;;;19.70;11.03;;;4.80;99.90;;;;;;5054953;28;20220;-81
2022/12/01 02:51:01;;;;;;;21.30;11.03;;;4.80;99.90;;;;;;5057416;28;20173;-80
2022/12/01 02:53:27;;;;;;;19.90;11.17;;;4.80;99.90;;;;;;5038768;28;20190;-81
2022/12/01 02:55:54;;;;;;;21.43;11.63;;;4.80;99.90;;;;;;5057143;28;20228;-81
2022/12/01 02:58:21;;;;;;;19.50;11.60;;;4.80;99.90;;;;;;5057105;28;20174;-80
2022/12/01 03:01:01;;;;;;;20.07;11.10;;;4.80;99.90;;;;;;5056499;28;20168;-81
2022/12/01 03:03:35;;;;;;;21.37;10.77;;;4.70;99.90;;;;;;5038724;28;20186;-80
2022/12/01 03:06:19;;;;;;;18.17;10.00;;;4.60;99.90;;;;;;5038417;28;20175;-81
2022/12/01 03:09:16;;;;;;;17.20;10.20;;;4.50;99.90;;;;;;5057164;28;20173;-81
2022/12/01 03:12:14;;;;;;;17.80;10.93;;;4.40;99.90;;;;;;5005000;28;20674;-80
2022/12/01 03:14:57;;;;;;;18.93;9.33;;;4.40;99.90;;;;;;5038543;28;20221;-80
2022/12/01 03:17:29;;;;;;;15.70;9.27;;;4.30;99.90;;;;;;5056350;28;20256;-82
2022/12/01 03:20:22;;;;;;;17.80;9.50;;;4.40;99.90;;;;;;5038655;28;20173;-82
2022/12/01 03:22:52;;;;;;;16.50;9.53;;;4.40;99.90;;;;;;5038425;28;20194;-80
2022/12/01 03:25:21;;;;;;;14.83;8.50;;;4.30;99.90;;;;;;5038124;28;20170;-80
2022/12/01 03:27:48;;;;;;;14.33;8.33;;;4.20;99.90;;;;;;5038057;28;20239;-80
2022/12/01 03:30:15;;;;;;;17.07;8.80;;;4.20;99.90;;;;;;5055797;28;20179;-81
2022/12/01 03:32:48;;;;;;;16.90;9.07;;;4.10;99.90;;;;;;5038299;28;20174;-80
2022/12/01 03:35:25;;;;;;;15.53;8.50;;;4.10;99.90;;;;;;5038514;28;20181;-80
2022/12/01 03:38:24;;;;;;;13.80;8.53;;;4.20;99.90;;;;;;5056348;28;20253;-81
2022/12/01 03:40:56;;;;;;;14.80;8.27;;;4.30;99.90;;;;;;4995500;28;20188;-80
2022/12/01 03:43:32;;;;;;;15.33;8.50;;;4.30;99.90;;;;;;5055428;28;20206;-80
2022/12/01 03:46:00;;;;;;;13.03;7.73;;;4.30;99.90;;;;;;5055821;28;20644;-82
2022/12/01 03:48:27;;;;;;;13.23;7.83;;;4.30;99.90;;;;;;5037923;28;20181;-80
2022/12/01 03:51:22;;;;;;;17.10;9.33;;;4.30;99.90;;;;;;5037847;28;20185;-80
2022/12/01 03:54:16;;;;;;;15.27;9.07;;;4.30;99.90;;;;;;5055245;28;20199;-81
2022/12/01 03:56:47;;;;;;;18.47;9.87;;;4.30;99.90;;;;;;5055614;28;20464;-80
2022/12/01 03:59:15;;;;;;;19.10;10.10;;;4.30;99.90;;;;;;5037335;28;20177;-80
2022/12/01 04:01:41;;;;;;;18.43;10.47;;;4.10;99.90;;;;;;5055418;28;20190;-80
2022/12/01 04:04:10;;;;;;;18.10;10.77;;;4.20;99.90;;;;;;5037288;28;20224;-80
2022/12/01 04:06:36;;;;;;;16.87;9.80;;;4.20;99.90;;;;;;5037553;28;20209;-80
2022/12/01 04:09:03;;;;;;;18.07;10.07;;;4.10;99.90;;;;;;5055749;28;20178;-80
2022/12/01 04:14:13;;;;;;;19.97;10.23;;;4.00;99.90;;;;;;5055194;28;20254;-82
2022/12/01 04:16:38;;;;;;;18.13;10.30;;;4.10;99.90;;;;;;5037115;28;20197;-80
2022/12/01 04:19:04;;;;;;;21.13;10.40;;;4.10;99.90;;;;;;5037393;28;20659;-80
2022/12/01 04:21:30;;;;;;;17.30;10.07;;;4.10;99.90;;;;;;5055281;28;20178;-80
2022/12/01 04:24:01;;;;;;;18.47;9.03;;;4.10;99.90;;;;;;5037145;28;20204;-81
2022/12/01 04:26:33;;;;;;;17.67;9.87;;;4.20;99.90;;;;;;5037254;28;20197;-80
2022/12/01 04:29:00;;;;;;;16.70;10.17;;;4.20;99.90;;;;;;5037054;28;20667;-81
2022/12/01 04:31:26;;;;;;;17.97;10.47;;;4.20;99.90;;;;;;5037217;28;20201;-81
2022/12/01 04:33:53;;;;;;;17.37;9.67;;;4.20;99.90;;;;;;5054879;28;20200;-82
2022/12/01 04:36:19;;;;;;;17.30;10.03;;;4.20;99.90;;;;;;5037167;28;20228;-80
2022/12/01 04:38:44;;;;;;;16.20;9.37;;;4.20;99.90;;;;;;5036824;28;20632;-80
2022/12/01 04:41:11;;;;;;;15.53;9.20;;;4.10;99.90;;;;;;5054538;28;20658;-82
2022/12/01 04:43:37;;;;;;;15.93;9.20;;;4.10;99.90;;;;;;5036510;28;20216;-81
2022/12/01 04:46:04;;;;;;;17.63;10.20;;;4.00;99.90;;;;;;5036767;28;20185;-80
2022/12/01 04:48:29;;;;;;;17.90;9.63;;;4.00;99.90;;;;;;5060821;28;20188;-80
2022/12/01 04:50:55;;;;;;;17.83;9.93;;;4.10;99.90;;;;;;5066270;28;20181;-81
2022/12/01 04:53:21;;;;;;;17.07;9.70;;;4.20;99.90;;;;;;5061353;28;20203;-81
2022/12/01 04:55:46;;;;;;;17.23;10.47;;;4.10;99.90;;;;;;5036585;28;20696;-80
2022/12/01 04:58:12;;;;;;;16.40;10.07;;;4.00;99.90;;;;;;5036496;28;20177;-81
2022/12/01 05:00:38;;;;;;;17.03;9.83;;;4.10;99.90;;;;;;5054971;28;20173;-80
2022/12/01 05:03:04;;;;;;;16.90;10.07;;;4.00;99.90;;;;;;5036530;28;20237;-80
2022/12/01 05:05:30;;;;;;;16.10;9.67;;;4.10;99.90;;;;;;5036481;28;20182;-80
2022/12/01 05:07:57;;;;;;;16.00;9.87;;;4.10;99.90;;;;;;5054228;28;20188;-80
2022/12/01 05:10:22;;;;;;;16.80;9.43;;;4.10;99.90;;;;;;5035478;28;20260;-80
2022/12/01 05:12:48;;;;;;;16.93;10.27;;;4.00;99.90;;;;;;5036086;28;20359;-81
2022/12/01 05:15:15;;;;;;;16.37;10.07;;;4.00;99.90;;;;;;5053794;28;20668;-80
2022/12/01 05:17:40;;;;;;;15.80;9.67;;;3.90;99.90;;;;;;5054075;28;20181;-80
2022/12/01 05:23:00;;;;;;;14.47;9.30;;;4.00;99.90;;;;;;5054873;28;20193;-81
2022/12/01 05:25:26;;;;;;;18.13;9.07;;;3.80;99.90;;;;;;5037690;28;20178;-82
2022/12/01 05:27:51;;;;;;;15.17;9.50;;;3.80;99.90;;;;;;5037839;28;20268;-80
2022/12/01 05:30:17;;;;;;;17.83;9.90;;;3.80;99.90;;;;;;5037371;28;20216;-80
2022/12/01 05:32:42;;;;;;;16.10;9.80;;;3.80;99.90;;;;;;5054607;28;20207;-80
2022/12/01 05:35:08;;;;;;;18.20;10.07;;;3.80;99.90;;;;;;5055112;28;20181;-80
2022/12/01 05:37:34;;;;;;;16.17;9.40;;;3.80;99.90;;;;;;5054665;28;20197;-80
2022/12/01 05:40:00;;;;;;;17.17;10.03;;;3.80;99.90;;;;;;5037416;28;20182;-80
2022/12/01 05:42:26;;;;;;;15.93;9.77;;;3.80;99.90;;;;;;5054705;28;20177;-82
2022/12/01 05:44:52;;;;;;;17.13;9.97;;;3.80;99.90;;;;;;5055355;28;20197;-80
2022/12/01 05:47:17;;;;;;;16.70;9.67;;;3.80;99.90;;;;;;5055102;28;20200;-81
2022/12/01 05:49:43;;;;;;;16.33;9.53;;;3.80;99.90;;;;;;5037346;28;20186;-80
2022/12/01 05:52:08;;;;;;;16.33;9.93;;;3.70;99.90;;;;;;5037864;28;20766;-80
2022/12/01 05:54:34;;;;;;;18.37;10.50;;;3.70;99.90;;;;;;5037050;28;20202;-80
2022/12/01 05:57:00;;;;;;;16.53;9.83;;;3.50;99.90;;;;;;5037367;28;20205;-80
2022/12/01 05:59:26;;;;;;;16.70;9.60;;;3.60;99.90;;;;;;5037944;28;20264;-80
2022/12/01 06:01:52;;;;;;;18.17;10.63;;;3.60;99.90;;;;;;5037192;28;20212;-80
2022/12/01 06:04:17;;;;;;;17.70;10.33;;;3.50;99.90;;;;;;5037703;28;20197;-80
2022/12/01 06:06:43;;;;;;;20.80;11.60;;;3.50;99.90;;;;;;5056636;28;20173;-79
2022/12/01 06:09:09;;;;;;;18.60;10.73;;;3.50;99.90;;;;;;5037796;28;20223;-82
2022/12/01 06:11:35;;;;;;;19.73;10.80;;;3.50;99.90;;;;;;5055829;28;20252;-84
2022/12/01 06:14:00;;;;;;;16.93;10.13;;;3.40;99.90;;;;;;5036854;28;20555;-83
2022/12/01 06:16:26;;;;;;;17.80;10.80;;;3.40;99.90;;;;;;5053636;28;20204;-84
2022/12/01 06:18:51;;;;;;;16.60;10.43;;;3.40;99.90;;;;;;5035397;28;20175;-84
2022/12/01 06:21:17;;;;;;;18.73;10.53;;;3.40;99.90;;;;;;5035379;28;20168;-84
2022/12/01 06:23:43;;;;;;;17.60;11.03;;;3.40;99.90;;;;;;5052946;28;20231;-81
2022/12/01 06:26:08;;;;;;;17.20;10.40;;;3.50;99.90;;;;;;5054019;28;20204;-81
2022/12/01 06:28:34;;;;;;;15.90;9.87;;;3.50;99.90;;;;;;5036103;28;20227;-78
2022/12/01 06:31:00;;;;;;;16.93;10.13;;;3.50;99.90;;;;;;5034866;28;20177;-79
2022/12/01 06:33:25;;;;;;;19.57;11.07;;;3.50;99.90;;;;;;5053634;28;20193;-80
2022/12/01 06:36:03;;;;;;;19.87;10.53;;;3.90;99.90;;;;;;5053294;28;20205;-81
2022/12/01 06:38:30;;;;;;;17.53;10.37;;;3.80;99.90;;;;;;5034564;28;20179;-84
2022/12/01 06:40:56;;;;;;;18.53;10.30;;;3.60;99.90;;;;;;5052686;28;20264;-84
2022/12/01 06:43:21;;;;;;;17.97;10.60;;;3.70;99.90;;;;;;5078952;22;21842;-82
2022/12/01 06:45:47;;;;;;;18.57;10.90;;;3.60;99.90;;;;;;5054394;28;20187;-82
2022/12/01 06:48:13;;;;;;;19.47;11.10;;;3.50;99.90;;;;;;5071185;28;20177;-81
2022/12/01 06:50:39;;;;;;;19.57;10.60;;;3.50;99.90;;;;;;5054116;28;20208;-79
2022/12/01 06:53:04;;;;;;;19.17;11.33;;;3.40;99.90;;;;;;5059838;28;20236;-79
2022/12/01 06:55:30;;;;;;;19.87;10.30;;;3.40;99.90;;;;;;5050688;28;20284;-79
2022/12/01 06:57:59;;;;;;;20.90;11.50;;;3.40;99.90;;;;;;5052075;28;20268;-78
2022/12/01 07:00:24;;;;;;;16.87;10.33;;;3.30;99.90;;;;;;5061436;28;20185;-79
2022/12/01 07:02:50;;;;;;;17.57;10.17;;;3.40;99.90;;;;;;5072024;28;20173;-81
2022/12/01 07:05:15;;;;;;;17.93;9.77;;;3.50;99.90;;;;;;5059602;28;20188;-79
2022/12/01 07:07:41;;;;;;;18.73;10.33;;;3.50;99.90;;;;;;5062038;28;20182;-80
2022/12/01 07:10:08;;;;;;;17.87;10.70;;;3.40;99.90;;;;;;5051376;28;20186;-79
2022/12/01 07:12:34;;;;;;;17.60;10.80;;;3.50;99.90;;;;;;5050780;28;20174;-80
2022/12/01 07:15:00;;;;;;;18.33;10.43;;;3.40;99.90;;;;;;5052050;28;20196;-79
2022/12/01 07:17:26;;;;;;;16.90;10.47;;;3.40;99.90;;;;;;5051872;28;20340;-79
2022/12/01 07:19:52;;;;;;;15.60;10.10;;;3.40;99.90;;;;;;5050641;28;20268;-79
2022/12/01 07:22:17;;;;;;;16.60;10.60;;;3.40;99.90;;;;;;5050741;28;20182;-78
2022/12/01 07:24:43;;;;;;;18.07;10.13;;;3.50;99.90;;;;;;5051084;28;20568;-80
2022/12/01 07:27:08;;;;;;;16.30;10.27;;;3.50;99.90;;;;;;5052296;28;20174;-79
2022/12/01 07:29:34;;;;;;;18.37;10.47;;;3.40;99.90;;;;;;5054375;28;20589;-79
2022/12/01 07:32:00;;;;;;;15.30;10.43;;;3.40;99.90;;;;;;5061145;28;20181;-80
2022/12/01 07:34:25;;;;;;;16.83;9.83;;;3.40;99.90;;;;;;5075895;28;20257;-79
2022/12/01 07:36:51;;;;;;;16.20;9.87;;;3.40;99.90;;;;;;5059382;28;20200;-79
2022/12/01 07:39:16;;;;;;;15.67;9.93;;;3.40;99.90;;;;;;5060950;28;20199;-81
2022/12/01 07:41:42;;;;;;;15.00;9.50;;;3.40;99.90;;;;;;5060152;28;20172;-80
2022/12/01 07:44:11;;;;;;;19.07;10.23;;;3.30;99.90;;;;;;5073696;28;20204;-80
2022/12/01 07:46:37;;;;;;;15.93;9.63;;;3.30;99.90;;;;;;5075173;28;20173;-80
2022/12/01 07:49:05;;;;;;;15.50;9.70;;;3.30;99.90;;;;;;5057407;28;20549;-80
2022/12/01 07:51:31;;;;;;;25.73;14.73;;;3.40;99.90;;;;;;5075157;28;20172;-80
2022/12/01 07:54:01;;;;;;;18.60;11.63;;;3.40;99.90;;;;;;5057486;28;20200;-80
2022/12/01 07:56:27;;;;;;;16.37;10.40;;;3.40;99.90;;;;;;5074997;28;20255;-80
2022/12/01 07:58:53;;;;;;;16.70;11.00;;;3.50;99.90;;;;;;5065042;28;20194;-80
2022/12/01 08:01:23;;;;;;;16.73;10.33;;;3.50;99.90;;;;;;5069305;28;20165;-80
2022/12/01 08:03:51;;;;;;;36.87;23.87;;;3.50;99.90;;;;;;5061978;28;20705;-79
2022/12/01 08:06:17;;;;;;;25.23;16.13;;;3.60;99.90;;;;;;5060943;28;20177;-80
2022/12/01 08:08:43;;;;;;;17.53;10.90;;;3.60;99.90;;;;;;5065906;28;20188;-80
2022/12/01 08:11:17;;;;;;;18.83;10.30;;;3.70;99.90;;;;;;5070679;28;20176;-80
2022/12/01 08:13:43;;;;;;;15.00;9.80;;;3.70;99.90;;;;;;5056156;28;20197;-80
2022/12/01 08:16:11;;;;;;;15.33;9.77;;;3.80;99.90;;;;;;5056199;28;20200;-80
2022/12/01 08:18:38;;;;;;;20.23;13.23;;;3.80;99.90;;;;;;5073721;28;20169;-80
2022/12/01 08:21:05;;;;;;;23.97;12.73;;;3.80;99.90;;;;;;5055350;28;20597;-80
2022/12/01 08:23:31;;;;;;;20.23;12.13;;;3.90;99.90;;;;;;5055713;28;20196;-80
2022/12/01 08:26:05;;;;;;;23.13;14.97;;;3.90;99.90;;;;;;5056157;28;20515;-80
2022/12/01 08:28:33;;;;;;;16.17;10.47;;;3.90;99.90;;;;;;5056346;28;20230;-80
2022/12/01 08:31:06;;;;;;;39.87;25.23;;;3.90;99.90;;;;;;5056071;28;20177;-80
2022/12/01 08:33:32;;;;;;;25.20;16.73;;;3.90;99.90;;;;;;5056459;28;20231;-80
2022/12/01 08:36:03;;;;;;;18.20;11.10;;;3.80;99.90;;;;;;5074202;28;20247;-80
2022/12/01 08:38:29;;;;;;;16.97;10.87;;;3.90;99.90;;;;;;5056719;28;20224;-80
2022/12/01 08:40:59;;;;;;;34.67;19.97;;;3.90;99.90;;;;;;5056241;28;20173;-80
2022/12/01 08:43:25;;;;;;;39.97;24.13;;;3.80;99.90;;;;;;5055754;28;20203;-80
2022/12/01 08:45:50;;;;;;;32.40;19.27;;;3.80;99.90;;;;;;5054978;28;20173;-80
2022/12/01 08:48:16;;;;;;;17.77;11.03;;;3.80;99.90;;;;;;5056386;28;20181;-80
2022/12/01 08:50:41;;;;;;;18.10;10.93;;;3.90;99.90;;;;;;5056143;28;20207;-80
2022/12/01 08:53:07;;;;;;;18.27;10.90;;;3.90;99.90;;;;;;5055752;28;20188;-80
2022/12/01 08:55:32;;;;;;;28.80;16.97;;;4.00;99.90;;;;;;5073598;28;20200;-80
2022/12/01 08:57:58;;;;;;;22.53;13.60;;;3.90;99.90;;;;;;5056270;28;20177;-80
2022/12/01 09:00:24;;;;;;;25.57;14.77;;;3.80;99.90;;;;;;5056213;28;20269;-80
2022/12/01 09:02:49;;;;;;;27.80;15.97;;;3.80;99.90;;;;;;5073471;28;20177;-80
2022/12/01 09:05:15;;;;;;;25.00;15.07;;;3.80;99.90;;;;;;5055937;28;20546;-80
2022/12/01 09:07:41;;;;;;;22.57;12.90;;;3.80;99.90;;;;;;5055741;28;20196;-80
2022/12/01 09:10:08;;;;;;;70.63;39.83;;;3.90;99.90;;;;;;5073714;28;20169;-80
2022/12/01 09:12:33;;;;;;;22.63;13.20;;;3.90;99.90;;;;;;5055378;28;20176;-80
2022/12/01 09:14:59;;;;;;;20.17;13.10;;;3.90;99.90;;;;;;5055693;28;20251;-80
2022/12/01 09:17:24;;;;;;;20.13;12.50;;;3.80;99.90;;;;;;5055703;28;20208;-80
2022/12/01 09:19:50;;;;;;;17.20;10.80;;;3.80;99.90;;;;;;5055817;28;20177;-80
2022/12/01 09:22:16;;;;;;;22.47;13.90;;;3.80;99.90;;;;;;5073172;28;20583;-80
2022/12/01 09:24:41;;;;;;;17.93;10.47;;;3.90;99.90;;;;;;5055752;28;20193;-80
2022/12/01 09:27:08;;;;;;;20.27;11.57;;;4.00;99.90;;;;;;5073286;28;20196;-80
2022/12/01 09:29:34;;;;;;;20.37;12.40;;;4.10;99.90;;;;;;5073623;28;20183;-80
2022/12/01 09:32:00;;;;;;;16.17;10.37;;;4.10;99.90;;;;;;5055161;28;20177;-78
2022/12/01 09:34:26;;;;;;;17.80;11.73;;;4.10;99.90;;;;;;5073099;28;20215;-80
2022/12/01 09:36:55;;;;;;;16.47;10.17;;;4.10;99.90;;;;;;5055037;28;20197;-80
2022/12/01 09:39:21;;;;;;;16.60;10.70;;;4.00;99.90;;;;;;5055352;28;20531;-80
2022/12/01 09:41:50;;;;;;;27.13;14.83;;;4.00;99.90;;;;;;5055216;28;20657;-80
2022/12/01 09:44:29;;;;;;;20.17;10.50;;;3.90;99.90;;;;;;5072885;28;20301;-80
2022/12/01 09:47:23;;;;;;;20.30;12.27;;;3.90;99.90;;;;;;5073137;28;20177;-80
2022/12/01 09:50:00;;;;;;;19.40;11.87;;;3.90;99.90;;;;;;5052500;28;20185;-80
2022/12/01 09:52:38;;;;;;;21.87;11.77;;;3.90;99.90;;;;;;5073081;28;20167;-80
2022/12/01 09:55:10;;;;;;;24.07;13.73;;;4.10;99.90;;;;;;5072913;28;20193;-80
2022/12/01 09:57:39;;;;;;;24.10;14.30;;;4.00;99.90;;;;;;5054580;28;20206;-80
2022/12/01 10:00:27;;;;;;;27.03;16.67;;;4.00;99.90;;;;;;5054870;28;20179;-80
2022/12/01 10:03:12;;;;;;;27.60;15.07;;;3.90;99.90;;;;;;5055011;28;20176;-80
2022/12/01 10:05:56;;;;;;;27.63;14.87;;;3.90;99.90;;;;;;5055032;28;20182;-80
2022/12/01 10:08:28;;;;;;;29.77;16.77;;;3.90;99.90;;;;;;5054549;28;20183;-80
2022/12/01 10:10:59;;;;;;;33.00;16.63;;;3.90;99.90;;;;;;5069637;28;20309;-80
2022/12/01 10:13:27;;;;;;;30.80;16.10;;;4.00;99.90;;;;;;5054811;28;20199;-82
2022/12/01 10:15:53;;;;;;;28.60;15.33;;;4.10;99.90;;;;;;5072314;28;20307;-80
2022/12/01 10:18:40;;;;;;;30.67;15.60;;;4.10;99.90;;;;;;5054655;28;20607;-80
2022/12/01 10:21:26;;;;;;;32.00;15.70;;;4.20;99.90;;;;;;5054705;28;20173;-79
2022/12/01 10:24:01;;;;;;;32.27;16.20;;;4.10;99.90;;;;;;5054545;28;20191;-81
2022/12/01 10:26:40;;;;;;;35.60;17.93;;;4.10;99.90;;;;;;5060807;28;20231;-79
2022/12/01 10:29:21;;;;;;;31.17;16.07;;;4.10;99.90;;;;;;5051264;28;20192;-80
2022/12/01 10:32:01;;;;;;;33.30;16.83;;;4.30;99.90;;;;;;5051363;28;20260;-80
2022/12/01 10:34:41;;;;;;;33.13;17.30;;;4.20;99.90;;;;;;5052401;28;20189;-80
2022/12/01 10:37:16;;;;;;;32.13;17.13;;;4.10;99.90;;;;;;5052847;28;20300;-79
2022/12/01 10:39:45;;;;;;;33.53;17.03;;;4.10;99.90;;;;;;5051677;28;20226;-79
2022/12/01 10:42:29;;;;;;;48.77;29.07;;;4.10;99.90;;;;;;5053374;28;20196;-80
2022/12/01 10:44:58;;;;;;;36.50;17.90;;;4.20;99.90;;;;;;5051256;28;20213;-82
2022/12/01 10:47:24;;;;;;;36.67;18.40;;;4.30;99.90;;;;;;5054559;28;20212;-80
2022/12/01 10:49:50;;;;;;;39.07;20.70;;;4.30;99.90;;;;;;5058313;28;20170;-79
2022/12/01 10:52:37;;;;;;;39.77;20.20;;;4.40;99.90;;;;;;5055397;28;20224;-80
2022/12/01 10:55:25;;;;;;;41.30;19.03;;;4.30;99.90;;;;;;5054965;28;20192;-80
2022/12/01 10:57:53;;;;;;;41.13;19.50;;;4.10;99.90;;;;;;5052351;28;20238;-79
2022/12/01 11:00:25;;;;;;;35.93;16.67;;;4.00;99.90;;;;;;5052812;28;20184;-82
2022/12/01 11:02:50;;;;;;;36.37;19.17;;;5.20;99.90;;;;;;5053339;28;20173;-80
2022/12/01 11:05:19;;;;;;;33.33;18.10;;;6.00;99.90;;;;;;5066801;28;20199;-82
2022/12/01 11:07:46;;;;;;;36.70;18.13;;;5.70;99.90;;;;;;5054418;28;20197;-83
2022/12/01 11:10:34;;;;;;;37.90;18.73;;;5.30;99.90;;;;;;5060202;28;20640;-83
2022/12/01 11:13:28;;;;;;;37.23;18.50;;;5.00;99.90;;;;;;5077582;28;20174;-83
2022/12/01 11:15:58;;;;;;;33.57;17.47;;;4.70;99.90;;;;;;5075265;28;20212;-83
2022/12/01 11:18:35;;;;;;;39.20;18.33;;;4.70;99.90;;;;;;5057616;28;20171;-82
2022/12/01 11:21:14;;;;;;;33.23;17.60;;;4.60;99.90;;;;;;5075797;28;20260;-83
2022/12/01 11:23:51;;;;;;;36.40;17.87;;;4.60;99.90;;;;;;5057903;28;20272;-83
2022/12/01 11:26:31;;;;;;;35.07;17.97;;;4.50;99.90;;;;;;5058851;28;20653;-82
2022/12/01 11:29:19;;;;;;;40.53;19.03;;;4.50;99.90;;;;;;5058658;28;20179;-82
2022/12/01 11:31:48;;;;;;;35.83;18.13;;;4.40;99.90;;;;;;5076423;28;20169;-82
2022/12/01 11:34:19;;;;;;;34.43;17.40;;;4.40;99.90;;;;;;5058273;28;20226;-83
2022/12/01 11:36:48;;;;;;;37.47;17.93;;;4.50;99.90;;;;;;5058743;28;20200;-81
2022/12/01 11:39:38;;;;;;;35.97;17.70;;;4.50;99.90;;;;;;5076095;28;20170;-83
2022/12/01 11:42:24;;;;;;;33.50;16.43;;;4.60;99.90;;;;;;5046526;28;20184;-82
2022/12/01 11:44:56;;;;;;;37.60;18.63;;;4.60;99.90;;;;;;5057800;28;20233;-82
2022/12/01 11:47:24;;;;;;;38.53;17.53;;;4.60;99.90;;;;;;5058280;28;20254;-82
2022/12/01 11:49:59;;;;;;;33.33;16.57;;;4.70;99.90;;;;;;5076093;28;20232;-82
2022/12/01 11:52:44;;;;;;;36.90;17.57;;;4.60;99.90;;;;;;5076228;28;20180;-82
2022/12/01 11:55:09;;;;;;;34.93;16.43;;;4.50;99.90;;;;;;5058144;28;20218;-82
2022/12/01 11:57:36;;;;;;;36.00;16.63;;;4.50;99.90;;;;;;5075531;28;20200;-83
2022/12/01 12:00:15;;;;;;;35.50;16.63;;;4.60;99.90;;;;;;5057848;28;20189;-82
2022/12/01 12:02:40;;;;;;;36.57;15.77;;;4.70;99.90;;;;;;5075896;28;20529;-82
2022/12/01 12:05:25;;;;;;;34.47;18.07;;;4.70;99.90;;;;;;5075810;28;20196;-82
2022/12/01 12:08:06;;;;;;;37.20;17.87;;;4.60;99.90;;;;;;5076202;28;20210;-82
2022/12/01 12:10:44;;;;;;;34.90;16.93;;;4.60;99.90;;;;;;5058356;28;20233;-83
2022/12/01 12:13:33;;;;;;;36.97;17.23;;;4.70;99.90;;;;;;5057687;28;20627;-82
2022/12/01 12:16:18;;;;;;;34.77;17.23;;;4.80;99.90;;;;;;5058278;28;20201;-83
2022/12/01 12:19:05;;;;;;;34.83;16.93;;;4.80;99.90;;;;;;5075826;28;20258;-83
2022/12/01 12:21:52;;;;;;;38.53;19.80;;;4.90;99.90;;;;;;5076111;28;20177;-82
2022/12/01 12:24:54;;;;;;;40.00;19.70;;;4.90;99.90;;;;;;5057422;28;20227;-82
2022/12/01 12:27:55;;;;;;;35.67;17.07;;;4.90;99.90;;;;;;5076124;28;20181;-83
2022/12/01 12:30:26;;;;;;;38.83;17.87;;;4.90;99.90;;;;;;5054326;28;20189;-83
2022/12/01 12:33:26;;;;;;;39.83;18.67;;;5.00;99.90;;;;;;5057754;28;20169;-82
2022/12/01 12:36:10;;;;;;;38.27;18.03;;;5.00;99.90;;;;;;5075521;28;20451;-83
2022/12/01 12:38:51;;;;;;;37.90;17.40;;;5.00;99.90;;;;;;5075874;28;20174;-82
2022/12/01 12:41:38;;;;;;;38.93;17.60;;;5.00;99.90;;;;;;5058365;28;20644;-82
2022/12/01 12:44:25;;;;;;;39.60;16.90;;;4.90;99.90;;;;;;5067655;22;20224;-82
2022/12/01 12:46:54;;;;;;;37.87;17.90;;;4.90;99.90;;;;;;5015710;28;20183;-82
2022/12/01 12:49:41;;;;;;;40.90;18.07;;;4.90;99.90;;;;;;5014571;28;20179;-82
2022/12/01 12:52:15;;;;;;;34.33;17.47;;;4.90;99.90;;;;;;5014338;28;20172;-83
2022/12/01 12:54:50;;;;;;;36.87;17.30;;;4.90;99.90;;;;;;5014294;28;20200;-82
2022/12/01 12:57:37;;;;;;;34.70;17.80;;;5.00;99.90;;;;;;5014399;28;20217;-82
2022/12/01 13:00:06;;;;;;;40.13;18.70;;;5.10;99.90;;;;;;5014069;28;20198;-83
2022/12/01 13:02:46;;;;;;;42.87;18.93;;;5.20;99.90;;;;;;5015447;28;20174;-82
2022/12/01 13:05:26;;;;;;;37.80;18.20;;;5.10;99.90;;;;;;5015221;28;20198;-82